createdAt,value
2023-03-22T00:01:36.966Z,24.60
2023-03-22T00:16:41.767Z,24.10
2023-03-22T00:31:59.721Z,20.40
2023-03-22T00:47:04.414Z,19.70
2023-03-22T01:02:29.951Z,21.40
2023-03-22T01:27:05.371Z,18.10
2023-03-22T01:42:13.965Z,19.50
2023-03-22T01:57:18.235Z,22.60
2023-03-22T02:12:45.543Z,22.00
2023-03-22T02:44:15.109Z,21.40
2023-03-22T02:59:23.477Z,21.80
2023-03-22T03:14:36.476Z,20.30
2023-03-22T03:30:01.479Z,19.90
2023-03-22T03:45:08.774Z,19.70
2023-03-22T04:00:17.455Z,18.90
2023-03-22T04:15:21.758Z,17.20
2023-03-22T04:30:27.769Z,20.40
2023-03-22T04:45:32.535Z,14.70
2023-03-22T05:00:53.775Z,19.50
2023-03-22T05:15:57.720Z,17.50
2023-03-22T05:31:02.484Z,20.40
2023-03-22T05:46:12.176Z,20.80
2023-03-22T06:01:17.098Z,14.00
2023-03-22T06:16:21.471Z,19.60
2023-03-22T06:31:25.718Z,16.40
2023-03-22T07:01:49.242Z,14.70
2023-03-22T07:16:53.171Z,15.50
2023-03-22T07:31:57.219Z,14.20
2023-03-22T07:47:15.112Z,12.50
2023-03-22T08:02:19.576Z,17.40
2023-03-22T08:17:26.361Z,15.40
2023-03-22T08:32:30.674Z,13.50
2023-03-22T09:42:29.673Z,11.30
2023-03-22T09:57:39.247Z,9.70
2023-03-22T10:12:53.742Z,8.80
2023-03-22T10:43:36.396Z,8.50
2023-03-22T10:58:58.310Z,8.00
2023-03-22T11:14:14.988Z,8.70
2023-03-22T11:29:22.304Z,7.20
2023-03-22T11:44:40.260Z,8.80
2023-03-22T11:59:58.903Z,7.80
2023-03-22T12:15:41.255Z,9.00
2023-03-22T12:30:54.392Z,7.50
2023-03-22T13:17:40.316Z,5.20
2023-03-22T13:32:55.324Z,6.20
2023-03-22T13:48:41.464Z,6.50
2023-03-22T14:03:50.529Z,6.20
